»·PEaware :: N12MZ KSNA-KBUR

N12MZ :: KSNA-KBUR

FLIGHT INFORMATION

Flight Status: Arrived
Operator: Privately registered:
United States
More flights under this callsign
Pilot: Mike Z. (25595)
Aircraft: CESSNA 172 SKYHAWK
(C172)
More flights by this aircraft type
Origin: KSNA John Wayne-Orange Co
United States
Destination: KBUR Bob Hope-Burbank
United States
More flights between these airports :: More routes between these airports
Route: SLI V23 POPPR SMO125 SMO SMO311 SILEX
File this flight plan on PilotEdge
Remarks: I-3 TEC Route CSTP1 v2
Altitude:
(Current/Filed)
4,000ft
Speed:
(Current/Filed)
120kts
Departed: 25-Aug-19 06:11 PM
Arrived: 25-Aug-19 06:49 PM
Distance/Time
Traveled:
40nm/0:38
Distance/Time
To Go:
Arrived

Flight Plot

Page will automatically refresh every two minutes.


Map Options




Map Legend


Flown Route
Filed Route
Departure Airport
Arrival Airport
Navaid (VOR, NDB)
Fix

Horizontal Profiles

Position Reports

Time Latitude Longitude Heading Altitude Ground
Speed
25-Aug-19 17:51 33.676205 -117.871104 212 60ft 0kts
25-Aug-19 17:52 33.676205 -117.871104 212 60ft 0kts
25-Aug-19 17:53 33.676205 -117.871104 212 60ft 0kts
25-Aug-19 17:54 33.676205 -117.871104 212 60ft 0kts
25-Aug-19 17:55 33.676205 -117.871104 212 60ft 0kts
25-Aug-19 17:56 33.676205 -117.871104 212 60ft 0kts
25-Aug-19 17:57 33.676205 -117.871104 212 60ft 0kts
25-Aug-19 17:58 33.676205 -117.871104 212 60ft 0kts
25-Aug-19 17:59 33.676205 -117.871104 212 60ft 0kts
25-Aug-19 18:00 33.676205 -117.871104 212 60ft 0kts
25-Aug-19 18:01 33.676205 -117.871104 212 60ft 0kts
25-Aug-19 18:02 33.676181 -117.871115 193 60ft 2kts
25-Aug-19 18:03 33.676828 -117.870042 37 60ft 17kts
25-Aug-19 18:04 33.681254 -117.866576 100 60ft 8kts
25-Aug-19 18:05 33.681218 -117.866461 118 60ft 0kts
25-Aug-19 18:06 33.681218 -117.866462 118 60ft 0kts
25-Aug-19 18:07 33.681218 -117.866462 118 60ft 0kts
25-Aug-19 18:08 33.681218 -117.866462 118 60ft 0kts
25-Aug-19 18:09 33.680400 -117.865873 208 60ft 21kts
25-Aug-19 18:10 33.666515 -117.878203 223 575ft 67kts
25-Aug-19 18:11 33.651982 -117.896317 223 1210ft 79kts
25-Aug-19 18:12 33.637160 -117.915223 223 1936ft 73kts
25-Aug-19 18:13 33.619040 -117.938280 223 2002ft 104kts
25-Aug-19 18:15 33.603446 -117.965339 276 2203ft 92kts
25-Aug-19 18:16 33.613146 -117.993101 288 2712ft 94kts
25-Aug-19 18:17 33.622502 -118.021124 285 3415ft 80kts
25-Aug-19 18:18 33.630544 -118.046728 285 3928ft 85kts
25-Aug-19 18:19 33.639774 -118.079229 277 4008ft 117kts
25-Aug-19 18:20 33.656356 -118.114103 319 4006ft 129kts
25-Aug-19 18:21 33.684147 -118.140128 319 4008ft 123kts
25-Aug-19 18:22 33.711257 -118.166129 318 4011ft 123kts
25-Aug-19 18:23 33.738091 -118.192174 317 4013ft 123kts
25-Aug-19 18:24 33.764866 -118.218267 317 4015ft 123kts
25-Aug-19 18:25 33.789985 -118.242780 320 4013ft 105kts
25-Aug-19 18:26 33.811944 -118.264260 320 4016ft 98kts
25-Aug-19 18:27 33.834900 -118.286315 323 4019ft 109kts
25-Aug-19 18:28 33.860068 -118.308568 321 4020ft 111kts
25-Aug-19 18:29 33.886199 -118.333296 317 4024ft 124kts
25-Aug-19 18:30 33.913475 -118.360264 316 4023ft 126kts
25-Aug-19 18:31 33.940098 -118.387365 316 4022ft 126kts
25-Aug-19 18:31 33.963190 -118.409887 319 4022ft 127kts
25-Aug-19 18:33 33.995986 -118.441075 318 4014ft 125kts
25-Aug-19 18:34 34.024232 -118.466139 324 4015ft 124kts
25-Aug-19 18:34 34.045350 -118.489713 312 4015ft 122kts
25-Aug-19 18:35 34.069723 -118.518478 312 4016ft 122kts
25-Aug-19 18:36 34.094030 -118.547096 312 4015ft 121kts
25-Aug-19 18:38 34.120038 -118.578303 312 4012ft 121kts
25-Aug-19 18:38 34.139900 -118.602638 312 4012ft 122kts
25-Aug-19 18:39 34.171447 -118.615362 4 4004ft 122kts
25-Aug-19 18:40 34.193953 -118.583579 61 3508ft 128kts
25-Aug-19 18:41 34.199839 -118.542933 92 3004ft 123kts
25-Aug-19 18:42 34.199437 -118.507129 93 2939ft 99kts
25-Aug-19 18:43 34.199083 -118.473550 93 2450ft 96kts
25-Aug-19 18:44 34.198753 -118.442529 94 1957ft 89kts
25-Aug-19 18:45 34.198424 -118.413068 94 1485ft 86kts
25-Aug-19 18:46 34.198211 -118.387524 95 1056ft 65kts
25-Aug-19 18:47 34.197789 -118.362002 94 719ft 69kts
25-Aug-19 18:48 34.198559 -118.352269 328 700ft 0kts
25-Aug-19 18:49 34.198720 -118.352436 308 700ft 6kts
25-Aug-19 18:50 34.198846 -118.357442 272 712ft 10kts
25-Aug-19 18:51 34.201541 -118.358629 340 723ft 14kts
25-Aug-19 18:52 34.201322 -118.359788 173 724ft 0kts
25-Aug-19 18:53 34.201322 -118.359788 173 724ft 0kts
25-Aug-19 18:54 34.201322 -118.359788 173 724ft 0kts

Navigation Log

Ident Type
Flight plan parsing failed, navigation log unavailable